Time;durP1;ratioP1;P1;durP2;ratioP2;P2;SDS_P1;SDS_P2;PMS_P1;PMS_P2;Temp;Humidity;BMP_temperature;BMP_pressure;BME280_temperature;BME280_humidity;BME280_pressure;Samples;Min_cycle;Max_cycle;Signal;HPM_P1;HPM_P2
2022/07/08 00:00:17;;;;;;;5.20;4.70;;;20.90;62.90;;;;;;5056803;28;20064;-72
2022/07/08 00:02:43;;;;;;;4.85;4.38;;;20.90;63.00;;;;;;5067732;28;20055;-72
2022/07/08 00:05:09;;;;;;;6.03;5.10;;;20.90;63.50;;;;;;5056395;28;20017;-70
2022/07/08 00:07:35;;;;;;;5.40;4.78;;;20.80;63.50;;;;;;5058760;28;20095;-72
2022/07/08 00:10:03;;;;;;;5.35;4.50;;;20.80;63.70;;;;;;5056788;28;20017;-71
2022/07/08 00:12:29;;;;;;;4.57;4.10;;;20.80;63.50;;;;;;5040478;28;20083;-71
2022/07/08 00:14:55;;;;;;;6.30;5.10;;;20.80;63.50;;;;;;5066183;28;20025;-71
2022/07/08 00:17:20;;;;;;;5.47;4.60;;;20.80;63.80;;;;;;5062505;28;20029;-70
2022/07/08 00:19:46;;;;;;;4.85;3.92;;;20.70;63.80;;;;;;5057445;28;20033;-70
2022/07/08 00:22:12;;;;;;;5.10;3.90;;;20.70;63.80;;;;;;5066695;28;20029;-70
2022/07/08 00:24:37;;;;;;;4.95;3.85;;;20.70;64.00;;;;;;5066908;28;20459;-71
2022/07/08 00:27:03;;;;;;;4.55;3.53;;;20.70;64.00;;;;;;5061309;28;20078;-70
2022/07/08 00:29:29;;;;;;;5.13;3.22;;;20.60;63.90;;;;;;5064353;28;20470;-69
2022/07/08 00:31:55;;;;;;;4.90;3.53;;;20.60;63.80;;;;;;5057304;28;20043;-71
2022/07/08 00:34:21;;;;;;;2.83;2.58;;;20.60;64.00;;;;;;5068755;28;20102;-69
2022/07/08 00:36:47;;;;;;;3.33;2.63;;;20.60;63.90;;;;;;5049748;28;20024;-69
2022/07/08 00:39:13;;;;;;;2.92;2.42;;;20.60;64.00;;;;;;5060127;28;20107;-69
2022/07/08 00:41:39;;;;;;;2.55;2.35;;;20.60;64.20;;;;;;5059109;28;20557;-70
2022/07/08 00:44:05;;;;;;;2.90;2.00;;;20.60;64.00;;;;;;5055990;28;20044;-70
2022/07/08 00:46:31;;;;;;;2.08;1.88;;;20.60;64.00;;;;;;5068811;28;20039;-69
2022/07/08 00:48:57;;;;;;;1.88;1.30;;;20.60;64.00;;;;;;5060088;28;20032;-70
2022/07/08 00:51:24;;;;;;;1.88;1.50;;;20.60;63.70;;;;;;5060286;28;20060;-71
2022/07/08 00:53:52;;;;;;;3.15;1.38;;;20.60;63.60;;;;;;5067231;28;20448;-71
2022/07/08 00:56:22;;;;;;;6.85;2.10;;;20.60;63.60;;;;;;5054148;28;20380;-71
2022/07/08 00:58:49;;;;;;;2.03;1.30;;;20.60;63.60;;;;;;5066354;28;20428;-69
2022/07/08 01:01:16;;;;;;;2.00;1.20;;;20.50;63.40;;;;;;5062230;28;20051;-72
2022/07/08 01:03:44;;;;;;;2.55;1.40;;;20.50;63.50;;;;;;5058688;28;20029;-71
2022/07/08 01:06:10;;;;;;;1.25;1.10;;;20.50;63.30;;;;;;5068738;28;20055;-71
2022/07/08 01:08:35;;;;;;;4.25;1.48;;;20.50;63.40;;;;;;5056747;28;20063;-71
2022/07/08 01:11:01;;;;;;;1.17;1.10;;;20.50;63.80;;;;;;5062913;28;20036;-71
2022/07/08 01:13:27;;;;;;;2.65;1.40;;;20.50;63.70;;;;;;5053536;28;20028;-70
2022/07/08 01:15:53;;;;;;;2.05;1.20;;;20.40;63.70;;;;;;5061151;28;20025;-70
2022/07/08 01:18:25;;;;;;;1.30;1.20;;;20.40;63.70;;;;;;5055534;28;20029;-72
2022/07/08 01:20:51;;;;;;;2.75;1.30;;;20.40;63.90;;;;;;5065590;28;20029;-70
2022/07/08 01:23:17;;;;;;;1.02;1.00;;;20.40;64.00;;;;;;5061012;28;20024;-70
2022/07/08 01:25:44;;;;;;;1.33;1.17;;;20.30;64.10;;;;;;5058273;28;20445;-70
2022/07/08 01:28:10;;;;;;;1.27;1.17;;;20.30;64.00;;;;;;5038281;28;20467;-70
2022/07/08 01:30:36;;;;;;;1.00;0.93;;;20.40;64.00;;;;;;5068307;28;20029;-70
2022/07/08 01:33:01;;;;;;;3.08;1.02;;;20.40;64.00;;;;;;5062717;28;20032;-70
2022/07/08 01:35:27;;;;;;;1.30;1.20;;;20.30;64.10;;;;;;5053694;28;20434;-71
2022/07/08 01:37:53;;;;;;;1.55;1.30;;;20.30;64.20;;;;;;5061011;28;20021;-72
2022/07/08 01:40:19;;;;;;;1.42;1.33;;;20.30;64.20;;;;;;5054053;28;20031;-71
2022/07/08 01:42:44;;;;;;;3.33;1.23;;;20.30;64.20;;;;;;5066152;28;20048;-71
2022/07/08 01:45:10;;;;;;;1.95;1.25;;;20.30;64.40;;;;;;5061216;28;20021;-71
2022/07/08 01:47:36;;;;;;;7.38;1.70;;;20.30;64.20;;;;;;5056456;28;20101;-70
2022/07/08 01:50:02;;;;;;;2.03;1.40;;;20.30;64.30;;;;;;5067079;28;20131;-70
2022/07/08 01:52:28;;;;;;;2.95;1.25;;;20.30;64.40;;;;;;5042668;28;20531;-71
2022/07/08 01:54:54;;;;;;;1.40;1.20;;;20.30;64.40;;;;;;5068600;28;20025;-71
2022/07/08 01:57:21;;;;;;;2.03;1.30;;;20.30;64.60;;;;;;5066081;28;20123;-69
2022/07/08 01:59:49;;;;;;;1.70;1.40;;;20.30;64.50;;;;;;5061108;28;20422;-71
2022/07/08 02:02:19;;;;;;;1.67;1.23;;;20.30;64.60;;;;;;5070648;28;20036;-70
2022/07/08 02:04:46;;;;;;;1.58;1.10;;;20.30;64.40;;;;;;5058445;28;20070;-69
2022/07/08 02:07:12;;;;;;;1.13;1.02;;;20.30;64.40;;;;;;5066024;28;20482;-69
2022/07/08 02:09:38;;;;;;;2.28;1.50;;;20.30;64.30;;;;;;5068473;28;20115;-68
2022/07/08 02:12:20;;;;;;;1.40;1.08;;;20.30;64.30;;;;;;5058609;28;20021;-69
2022/07/08 02:14:51;;;;;;;2.05;1.30;;;20.30;64.40;;;;;;5068066;28;20032;-70
2022/07/08 02:17:20;;;;;;;1.73;1.38;;;20.30;64.30;;;;;;5065503;28;20509;-71
2022/07/08 02:19:46;;;;;;;2.15;1.38;;;20.30;64.40;;;;;;5060959;28;20111;-71
2022/07/08 02:22:12;;;;;;;1.50;1.40;;;20.30;64.50;;;;;;5052376;28;20025;-71
2022/07/08 02:24:39;;;;;;;2.33;1.45;;;20.30;64.40;;;;;;5070300;28;20072;-71
2022/07/08 02:27:05;;;;;;;10.68;1.33;;;20.30;64.70;;;;;;5052806;28;20112;-71
2022/07/08 02:29:32;;;;;;;1.77;1.10;;;20.30;64.60;;;;;;5062862;28;20029;-69
2022/07/08 02:31:58;;;;;;;5.60;1.30;;;20.30;64.70;;;;;;5070666;28;20110;-69
2022/07/08 02:34:25;;;;;;;1.85;1.20;;;20.30;64.80;;;;;;5058281;28;20020;-71
2022/07/08 02:36:51;;;;;;;1.10;1.10;;;20.30;64.60;;;;;;5056302;28;20031;-70
2022/07/08 02:39:17;;;;;;;2.45;1.60;;;20.30;64.90;;;;;;5069435;28;20025;-70
2022/07/08 02:41:43;;;;;;;1.67;1.42;;;20.30;65.10;;;;;;5061042;28;20371;-72
2022/07/08 02:44:09;;;;;;;1.75;1.65;;;20.30;66.10;;;;;;5069921;28;20129;-70
2022/07/08 02:46:38;;;;;;;3.13;1.95;;;20.30;66.40;;;;;;5059166;28;20025;-70
2022/07/08 02:49:04;;;;;;;2.30;1.67;;;20.30;66.40;;;;;;5066360;28;20383;-69
2022/07/08 02:51:30;;;;;;;2.90;1.38;;;20.20;66.20;;;;;;5066550;28;20442;-71
2022/07/08 02:53:55;;;;;;;2.00;1.70;;;20.20;66.30;;;;;;5058977;28;20064;-71
2022/07/08 02:56:21;;;;;;;5.78;1.77;;;20.20;66.30;;;;;;5052126;28;20133;-70
2022/07/08 02:58:47;;;;;;;1.58;1.48;;;20.10;66.40;;;;;;5068311;28;20041;-71
2022/07/08 03:01:13;;;;;;;2.50;1.80;;;20.10;66.80;;;;;;5063004;28;20111;-70
2022/07/08 03:03:38;;;;;;;2.50;2.00;;;20.10;67.40;;;;;;5061240;28;20054;-70
2022/07/08 03:06:04;;;;;;;3.65;1.77;;;20.10;67.40;;;;;;5070827;28;20028;-70
2022/07/08 03:08:30;;;;;;;3.28;2.05;;;20.10;67.30;;;;;;5058003;28;20017;-71
2022/07/08 03:10:56;;;;;;;4.75;2.10;;;20.00;67.40;;;;;;5067027;28;20025;-70
2022/07/08 03:13:22;;;;;;;4.53;2.20;;;20.00;67.40;;;;;;5062129;28;20501;-71
2022/07/08 03:15:48;;;;;;;2.00;1.50;;;20.00;67.70;;;;;;5059632;28;20048;-71
2022/07/08 03:18:14;;;;;;;2.03;1.83;;;19.90;67.80;;;;;;5044627;28;20040;-71
2022/07/08 03:20:40;;;;;;;2.85;1.90;;;19.90;67.90;;;;;;5046427;28;20029;-68
2022/07/08 03:23:06;;;;;;;3.40;1.80;;;19.90;68.20;;;;;;5065335;28;20025;-70
2022/07/08 03:25:33;;;;;;;2.08;1.58;;;19.90;68.20;;;;;;5059715;28;20378;-69
2022/07/08 03:27:59;;;;;;;1.92;1.60;;;19.90;68.20;;;;;;5056701;28;20033;-70
2022/07/08 03:30:25;;;;;;;9.35;1.83;;;19.90;68.50;;;;;;5046942;28;20115;-69
2022/07/08 03:32:51;;;;;;;3.72;1.60;;;19.90;68.50;;;;;;5047009;28;20150;-70
2022/07/08 03:35:17;;;;;;;1.75;1.63;;;19.90;68.60;;;;;;5060683;28;20032;-71
2022/07/08 03:37:44;;;;;;;2.70;1.80;;;19.90;68.60;;;;;;5052834;28;20029;-70
2022/07/08 03:42:54;;;;;;;4.05;1.60;;;19.90;68.20;;;;;;5066566;28;20398;-69
2022/07/08 03:45:20;;;;;;;6.88;1.40;;;19.90;68.00;;;;;;5063136;28;20024;-70
2022/07/08 03:47:46;;;;;;;2.08;1.30;;;19.90;68.10;;;;;;5068380;28;20393;-69
2022/07/08 03:50:12;;;;;;;4.63;1.30;;;20.00;68.10;;;;;;5056860;28;20479;-69
2022/07/08 03:52:38;;;;;;;1.90;1.15;;;20.00;67.40;;;;;;5063686;28;20100;-70
2022/07/08 03:55:05;;;;;;;1.10;0.95;;;19.90;67.30;;;;;;5050280;28;20142;-68
2022/07/08 03:57:31;;;;;;;0.80;0.80;;;20.00;67.20;;;;;;5061105;28;20051;-71
2022/07/08 03:59:57;;;;;;;1.83;1.23;;;19.90;66.60;;;;;;5068842;28;20025;-70
2022/07/08 04:02:23;;;;;;;1.35;0.88;;;19.90;65.80;;;;;;5056527;28;20475;-69
2022/07/08 04:04:49;;;;;;;2.80;1.00;;;19.90;66.40;;;;;;5052899;28;20024;-70
2022/07/08 04:07:16;;;;;;;1.08;0.80;;;19.90;65.60;;;;;;5063364;28;20514;-69
2022/07/08 04:09:42;;;;;;;2.03;1.00;;;19.90;65.80;;;;;;5065909;28;20081;-71
2022/07/08 04:12:09;;;;;;;0.70;0.70;;;19.90;65.00;;;;;;5055091;28;20497;-69
2022/07/08 04:14:35;;;;;;;1.48;1.10;;;19.90;64.70;;;;;;5056469;28;20513;-70
2022/07/08 04:17:00;;;;;;;1.38;0.90;;;19.90;65.30;;;;;;5058140;28;20128;-72
2022/07/08 04:19:26;;;;;;;1.30;0.90;;;19.90;65.10;;;;;;5054523;28;20039;-70
2022/07/08 04:21:52;;;;;;;1.40;1.15;;;19.90;65.00;;;;;;5067557;28;20086;-71
2022/07/08 04:24:18;;;;;;;2.30;1.15;;;19.90;65.30;;;;;;5061164;28;20033;-73
2022/07/08 04:26:44;;;;;;;2.75;1.23;;;19.90;65.30;;;;;;5067315;28;20071;-71
2022/07/08 04:29:10;;;;;;;1.15;1.05;;;19.90;65.10;;;;;;5061998;28;20359;-72
2022/07/08 04:31:36;;;;;;;1.85;0.90;;;19.90;64.90;;;;;;5058883;28;20029;-69
2022/07/08 04:34:02;;;;;;;0.82;0.80;;;19.90;64.60;;;;;;5067634;28;20024;-68
2022/07/08 04:36:27;;;;;;;0.90;0.80;;;19.80;63.70;;;;;;5055694;28;20028;-70
2022/07/08 04:38:53;;;;;;;1.08;0.98;;;19.80;64.20;;;;;;5053274;28;20386;-70
2022/07/08 04:41:19;;;;;;;0.82;0.82;;;19.90;64.20;;;;;;5043733;28;20025;-71
2022/07/08 04:43:45;;;;;;;2.15;0.80;;;19.90;64.20;;;;;;5050937;28;20078;-70
2022/07/08 04:46:12;;;;;;;2.00;0.95;;;19.90;63.60;;;;;;5069256;28;20243;-70
2022/07/08 04:48:37;;;;;;;1.00;0.80;;;19.90;63.40;;;;;;5057143;28;20488;-70
2022/07/08 04:51:03;;;;;;;0.80;0.80;;;19.80;64.10;;;;;;5059322;28;20107;-69
2022/07/08 04:53:29;;;;;;;1.95;0.80;;;19.90;63.50;;;;;;5062605;28;20032;-69
2022/07/08 04:55:55;;;;;;;1.15;0.77;;;19.80;63.50;;;;;;5067841;28;20128;-69
2022/07/08 04:58:21;;;;;;;0.70;0.70;;;19.80;63.00;;;;;;5055734;28;20075;-70
2022/07/08 05:00:46;;;;;;;2.35;0.90;;;19.90;63.20;;;;;;5060987;28;20556;-71
2022/07/08 05:03:12;;;;;;;1.73;0.80;;;19.80;63.00;;;;;;5051278;28;20032;-70
2022/07/08 05:05:38;;;;;;;1.33;0.60;;;19.80;63.20;;;;;;5059182;28;20027;-70
2022/07/08 05:08:04;;;;;;;6.43;0.85;;;19.80;62.90;;;;;;5068640;28;20024;-70
2022/07/08 05:10:30;;;;;;;4.03;0.80;;;19.90;63.40;;;;;;5055800;28;20012;-70
2022/07/08 05:12:59;;;;;;;0.80;0.80;;;19.90;63.40;;;;;;5050305;28;20025;-71
2022/07/08 05:15:26;;;;;;;1.27;0.88;;;20.00;63.00;;;;;;5060746;28;20033;-70
2022/07/08 05:17:55;;;;;;;3.60;0.95;;;20.00;63.00;;;;;;5066906;28;20500;-71
2022/07/08 05:20:21;;;;;;;0.60;0.60;;;20.10;62.50;;;;;;5056695;28;20033;-72
2022/07/08 05:22:47;;;;;;;1.08;0.70;;;20.10;62.30;;;;;;5050953;28;20094;-71
2022/07/08 05:25:13;;;;;;;0.60;0.60;;;20.10;62.20;;;;;;5066535;28;20021;-71
2022/07/08 05:27:39;;;;;;;1.25;0.82;;;20.10;62.00;;;;;;5069153;28;20024;-70
2022/07/08 05:30:07;;;;;;;4.22;0.98;;;20.10;61.50;;;;;;5071846;28;20032;-71
2022/07/08 05:32:33;;;;;;;1.00;0.73;;;20.10;61.80;;;;;;5058810;28;20024;-70
2022/07/08 05:34:59;;;;;;;5.43;1.10;;;20.20;62.10;;;;;;5067054;28;20467;-71
2022/07/08 05:37:24;;;;;;;1.83;0.80;;;20.20;62.00;;;;;;5048442;28;20061;-70
2022/07/08 05:39:50;;;;;;;2.20;0.70;;;20.30;61.90;;;;;;5051652;28;20060;-72
2022/07/08 05:42:16;;;;;;;1.10;0.73;;;20.40;62.00;;;;;;5072339;28;20032;-72
2022/07/08 05:44:42;;;;;;;3.22;1.45;;;20.50;62.10;;;;;;5059857;28;20028;-71
2022/07/08 05:47:08;;;;;;;3.92;0.90;;;20.60;62.20;;;;;;5060047;28;20024;-69
2022/07/08 05:49:35;;;;;;;1.70;0.93;;;20.60;61.30;;;;;;5068824;28;20021;-71
2022/07/08 05:52:02;;;;;;;11.48;1.63;;;20.70;60.90;;;;;;5059459;28;20032;-72
2022/07/08 05:54:27;;;;;;;4.25;1.55;;;20.80;60.50;;;;;;5072127;28;20075;-70
2022/07/08 05:56:53;;;;;;;10.55;3.90;;;20.90;60.10;;;;;;5061059;28;20048;-72
2022/07/08 05:59:19;;;;;;;4.30;2.10;;;21.00;59.50;;;;;;5065158;28;20025;-70
2022/07/08 06:01:45;;;;;;;4.25;2.00;;;21.10;59.30;;;;;;5068213;28;20024;-71
2022/07/08 06:04:11;;;;;;;3.80;2.08;;;21.20;59.20;;;;;;5070727;28;20020;-70
2022/07/08 06:06:37;;;;;;;7.57;2.50;;;21.20;58.80;;;;;;5060340;28;20461;-72
2022/07/08 06:09:03;;;;;;;8.20;3.35;;;21.30;58.30;;;;;;5072466;28;20394;-72
2022/07/08 06:11:29;;;;;;;5.15;2.40;;;21.40;59.10;;;;;;5057705;28;20032;-70
2022/07/08 06:13:55;;;;;;;2.50;1.17;;;21.60;58.40;;;;;;5067974;28;20025;-72
2022/07/08 06:16:21;;;;;;;1.15;0.80;;;21.70;58.20;;;;;;5057480;28;20032;-71
2022/07/08 06:18:47;;;;;;;2.45;0.90;;;21.80;58.00;;;;;;5058620;28;20025;-70
2022/07/08 06:21:13;;;;;;;1.40;0.80;;;21.90;57.00;;;;;;5054792;28;20020;-70
2022/07/08 06:23:39;;;;;;;3.83;0.95;;;22.10;57.20;;;;;;5061934;28;20103;-71
2022/07/08 06:26:05;;;;;;;3.17;1.40;;;22.20;56.40;;;;;;5071570;28;20082;-70
2022/07/08 06:28:31;;;;;;;3.70;1.20;;;22.20;55.20;;;;;;5054946;28;20075;-71
2022/07/08 06:30:57;;;;;;;4.32;1.42;;;22.20;55.90;;;;;;5054712;28;20417;-72
2022/07/08 06:33:23;;;;;;;3.33;1.40;;;22.30;55.40;;;;;;5054715;28;20025;-70
2022/07/08 06:35:49;;;;;;;3.45;1.50;;;22.30;55.00;;;;;;5069241;28;20028;-71
2022/07/08 06:38:15;;;;;;;3.10;1.40;;;22.30;54.40;;;;;;5054242;28;20116;-72
2022/07/08 06:40:41;;;;;;;13.20;2.13;;;22.10;54.00;;;;;;5049607;28;20030;-71
2022/07/08 06:43:06;;;;;;;7.28;1.70;;;22.00;54.00;;;;;;5044181;28;20029;-70
2022/07/08 06:45:32;;;;;;;7.07;1.50;;;21.90;54.00;;;;;;5034766;28;20383;-72
2022/07/08 06:48:02;;;;;;;5.13;1.75;;;21.80;54.20;;;;;;5034072;28;20029;-70
2022/07/08 06:50:29;;;;;;;6.43;1.85;;;21.70;54.70;;;;;;5039902;28;20017;-71
2022/07/08 06:52:55;;;;;;;4.25;1.60;;;21.60;54.80;;;;;;5035014;28;20038;-70
2022/07/08 06:55:22;;;;;;;4.28;1.80;;;21.60;55.40;;;;;;5034988;28;20029;-70
2022/07/08 06:57:48;;;;;;;9.10;2.35;;;21.60;55.40;;;;;;5035038;28;20551;-70
2022/07/08 07:00:15;;;;;;;8.30;1.83;;;21.60;55.20;;;;;;5035104;28;20041;-70
2022/07/08 07:02:41;;;;;;;5.45;2.30;;;21.60;54.80;;;;;;5034812;28;20025;-71
2022/07/08 07:05:07;;;;;;;9.88;2.88;;;21.60;55.20;;;;;;5033566;28;20071;-71
2022/07/08 07:07:33;;;;;;;6.25;1.90;;;21.60;54.20;;;;;;5034777;28;20025;-71
2022/07/08 07:09:59;;;;;;;4.82;2.05;;;21.60;55.20;;;;;;5034981;28;20025;-72
2022/07/08 07:12:25;;;;;;;3.72;1.95;;;21.60;54.60;;;;;;5034716;28;20033;-70
2022/07/08 07:14:51;;;;;;;3.55;1.75;;;21.50;54.50;;;;;;5034779;28;20025;-70
2022/07/08 07:17:21;;;;;;;5.45;1.70;;;21.50;54.90;;;;;;5034615;28;20032;-72
2022/07/08 07:19:48;;;;;;;4.78;1.83;;;21.50;54.60;;;;;;5033386;28;20037;-70
2022/07/08 07:22:15;;;;;;;7.25;2.13;;;21.50;54.40;;;;;;5034621;28;20030;-72
2022/07/08 07:24:41;;;;;;;8.63;1.70;;;21.40;55.20;;;;;;5034665;28;20021;-69
2022/07/08 07:27:07;;;;;;;5.10;1.90;;;21.50;54.40;;;;;;5034555;28;20422;-72
2022/07/08 07:29:34;;;;;;;5.68;1.90;;;21.50;54.40;;;;;;5034578;28;20029;-69
2022/07/08 07:32:00;;;;;;;7.00;1.92;;;21.50;54.20;;;;;;5034364;28;20086;-72
2022/07/08 07:34:26;;;;;;;16.10;3.03;;;21.60;54.40;;;;;;5033180;28;20041;-72
2022/07/08 07:36:52;;;;;;;10.20;2.17;;;21.60;53.50;;;;;;5034402;28;20034;-71
2022/07/08 07:39:17;;;;;;;7.38;2.13;;;21.60;52.60;;;;;;5034111;28;20036;-70
2022/07/08 07:41:43;;;;;;;9.65;2.63;;;21.60;52.60;;;;;;5032966;28;20120;-70
2022/07/08 07:44:09;;;;;;;5.63;1.70;;;21.70;53.00;;;;;;5034180;28;20025;-71
2022/07/08 07:46:35;;;;;;;8.55;2.63;;;21.80;53.20;;;;;;5034255;28;20053;-72
2022/07/08 07:49:01;;;;;;;12.90;2.00;;;21.90;53.40;;;;;;5034177;28;20554;-72
2022/07/08 07:51:27;;;;;;;6.28;2.22;;;22.00;52.60;;;;;;5034036;28;20104;-72
2022/07/08 07:53:54;;;;;;;4.82;1.85;;;22.00;51.90;;;;;;5034060;28;20096;-71
2022/07/08 07:56:20;;;;;;;5.25;1.80;;;22.00;51.50;;;;;;5033853;28;20045;-69
2022/07/08 07:58:46;;;;;;;7.80;2.05;;;22.10;51.40;;;;;;5033976;28;20447;-71
2022/07/08 08:01:12;;;;;;;7.10;1.55;;;22.10;52.00;;;;;;5034031;28;20067;-72
2022/07/08 08:03:37;;;;;;;4.95;1.70;;;22.20;52.20;;;;;;5033630;28;20022;-71
2022/07/08 08:06:04;;;;;;;5.53;1.63;;;22.30;51.80;;;;;;5033929;28;20022;-70
2022/07/08 08:08:33;;;;;;;5.13;2.08;;;22.40;50.20;;;;;;5033736;28;20025;-70
2022/07/08 08:11:00;;;;;;;3.28;1.83;;;22.60;50.80;;;;;;5032546;28;20049;-70
2022/07/08 08:13:27;;;;;;;4.40;1.73;;;22.70;49.80;;;;;;5033760;28;20450;-70
2022/07/08 08:15:53;;;;;;;4.90;1.65;;;22.70;49.20;;;;;;5033631;28;20025;-70
2022/07/08 08:18:19;;;;;;;7.03;1.55;;;22.90;48.90;;;;;;5033549;28;20053;-71
2022/07/08 08:20:45;;;;;;;5.07;1.52;;;22.90;47.70;;;;;;5033527;28;20447;-71
2022/07/08 08:23:12;;;;;;;8.40;1.60;;;23.00;47.90;;;;;;5033458;28;20030;-72
2022/07/08 08:25:37;;;;;;;7.82;1.85;;;23.00;46.50;;;;;;5033408;28;20022;-72
2022/07/08 08:28:04;;;;;;;4.80;1.52;;;22.90;45.70;;;;;;5033396;28;20033;-70
2022/07/08 08:30:30;;;;;;;4.50;1.67;;;22.90;46.60;;;;;;5033367;28;20383;-70
2022/07/08 08:32:57;;;;;;;3.03;1.58;;;22.80;46.60;;;;;;5033893;28;20433;-72
2022/07/08 08:35:24;;;;;;;6.18;1.73;;;22.80;45.90;;;;;;5033295;28;20075;-71
2022/07/08 08:37:50;;;;;;;8.52;1.95;;;22.80;46.90;;;;;;5033274;28;20029;-70
2022/07/08 08:40:21;;;;;;;5.97;2.30;;;22.70;46.70;;;;;;5033095;28;20032;-71
2022/07/08 08:42:47;;;;;;;9.75;2.40;;;22.70;46.90;;;;;;5033136;28;20029;-72
2022/07/08 08:45:13;;;;;;;10.07;2.20;;;22.70;46.50;;;;;;5033174;28;20025;-71
2022/07/08 08:47:39;;;;;;;3.13;1.60;;;22.70;46.20;;;;;;5033072;28;20132;-72
2022/07/08 08:52:54;;;;;;;6.03;1.98;;;22.60;47.10;;;;;;5033340;28;20407;-69
2022/07/08 08:55:31;;;;;;;8.18;1.60;;;22.70;46.20;;;;;;5032512;28;20036;-72
2022/07/08 08:57:59;;;;;;;6.32;1.85;;;22.70;45.90;;;;;;5033081;28;20029;-71
2022/07/08 09:00:26;;;;;;;3.90;2.00;;;22.80;44.80;;;;;;5032993;28;20390;-69
2022/07/08 09:02:53;;;;;;;8.35;2.22;;;22.90;44.30;;;;;;5032798;28;20046;-70
2022/07/08 09:05:20;;;;;;;9.20;2.00;;;23.00;43.90;;;;;;5032845;28;20028;-71
2022/07/08 09:07:46;;;;;;;13.25;2.45;;;23.10;44.60;;;;;;5031644;28;20104;-70
2022/07/08 09:10:14;;;;;;;6.15;1.83;;;23.20;43.90;;;;;;5031617;28;20105;-70
2022/07/08 09:13:06;;;;;;;4.90;1.52;;;23.30;42.20;;;;;;5031675;28;20047;-70
2022/07/08 09:15:33;;;;;;;6.65;2.45;;;23.40;42.70;;;;;;5031598;28;20044;-72
2022/07/08 09:18:01;;;;;;;5.55;1.55;;;23.50;42.50;;;;;;5032885;28;20026;-72
2022/07/08 09:20:36;;;;;;;4.80;1.90;;;23.60;43.40;;;;;;5032777;28;20029;-71
2022/07/08 09:23:02;;;;;;;7.20;2.10;;;23.70;43.40;;;;;;5032828;28;20033;-71
2022/07/08 09:25:31;;;;;;;6.22;2.20;;;23.70;44.10;;;;;;5031541;28;20387;-69
2022/07/08 09:27:58;;;;;;;6.30;2.17;;;23.80;43.10;;;;;;5032702;28;20048;-72
2022/07/08 09:30:28;;;;;;;8.60;2.20;;;23.80;42.60;;;;;;5031486;28;20028;-71
2022/07/08 09:32:59;;;;;;;10.32;2.42;;;23.70;41.50;;;;;;5032706;28;20424;-72
2022/07/08 09:35:33;;;;;;;4.60;1.70;;;23.80;41.70;;;;;;5031410;28;20471;-70
2022/07/08 09:38:03;;;;;;;6.65;2.60;;;23.70;41.50;;;;;;5031403;28;20439;-71
2022/07/08 09:40:29;;;;;;;5.63;2.10;;;23.80;41.50;;;;;;5031419;28;20087;-72
2022/07/08 09:42:55;;;;;;;3.95;1.85;;;23.90;42.60;;;;;;5031260;28;20033;-71
2022/07/08 09:45:31;;;;;;;11.48;2.45;;;24.00;42.40;;;;;;5032457;28;20383;-71
2022/07/08 09:48:08;;;;;;;7.60;2.00;;;24.10;41.00;;;;;;5031238;28;20029;-70
2022/07/08 09:50:42;;;;;;;4.40;1.48;;;24.20;40.60;;;;;;5032490;28;20049;-71
2022/07/08 09:53:28;;;;;;;4.35;1.75;;;24.30;40.40;;;;;;5032488;28;20029;-70
2022/07/08 09:55:56;;;;;;;5.50;1.60;;;24.40;41.20;;;;;;5032287;28;20052;-71
2022/07/08 09:58:29;;;;;;;7.70;2.00;;;24.50;40.80;;;;;;5032530;28;20037;-70
2022/07/08 10:00:56;;;;;;;3.42;1.45;;;24.50;40.50;;;;;;5032327;28;20017;-72
2022/07/08 10:03:23;;;;;;;4.53;1.80;;;24.70;40.60;;;;;;5030909;28;20368;-70
2022/07/08 10:05:50;;;;;;;7.72;2.33;;;24.80;39.20;;;;;;5032379;28;20483;-71
2022/07/08 10:08:17;;;;;;;8.35;2.20;;;24.80;37.70;;;;;;5034266;28;20151;-71
2022/07/08 10:10:45;;;;;;;9.70;2.25;;;24.80;37.60;;;;;;5036012;28;20025;-68
2022/07/08 10:13:13;;;;;;;4.35;1.85;;;24.90;37.40;;;;;;5035987;28;20034;-71
2022/07/08 10:15:40;;;;;;;4.32;2.38;;;24.90;38.20;;;;;;5035851;28;20045;-71
2022/07/08 10:18:25;;;;;;;5.50;2.03;;;25.10;38.30;;;;;;5035764;28;20432;-72
2022/07/08 10:20:55;;;;;;;20.33;2.03;;;25.20;37.50;;;;;;5034713;28;20433;-70
2022/07/08 10:23:36;;;;;;;5.50;1.75;;;25.20;36.70;;;;;;5035581;28;20032;-70
2022/07/08 10:26:04;;;;;;;8.65;2.17;;;25.30;37.10;;;;;;5035781;28;20104;-70
2022/07/08 10:28:37;;;;;;;6.95;2.10;;;25.20;36.30;;;;;;5035586;28;20115;-70
2022/07/08 10:31:18;;;;;;;6.22;2.30;;;25.10;35.90;;;;;;5035768;28;20108;-72
2022/07/08 10:33:48;;;;;;;7.90;2.00;;;25.00;35.60;;;;;;5035543;28;20552;-68
2022/07/08 10:36:21;;;;;;;6.60;2.63;;;25.00;35.90;;;;;;5035378;28;20025;-70
2022/07/08 10:38:48;;;;;;;9.70;2.10;;;24.90;36.40;;;;;;5035228;28;20460;-69
2022/07/08 10:41:27;;;;;;;5.30;1.95;;;24.90;36.40;;;;;;5035247;28;20498;-71
2022/07/08 10:44:02;;;;;;;7.63;1.90;;;24.80;37.30;;;;;;5033998;28;20497;-73
2022/07/08 10:46:28;;;;;;;6.63;2.17;;;24.80;37.40;;;;;;5035319;28;20151;-72
2022/07/08 10:48:56;;;;;;;4.45;1.60;;;24.80;36.70;;;;;;5035121;28;20022;-72
2022/07/08 10:51:24;;;;;;;9.30;2.15;;;24.80;37.50;;;;;;5035073;28;20080;-72
2022/07/08 10:54:01;;;;;;;15.77;2.55;;;24.80;37.30;;;;;;5035026;28;20029;-72
2022/07/08 10:56:59;;;;;;;8.55;2.08;;;24.80;36.70;;;;;;5034838;28;20064;-71
2022/07/08 10:59:35;;;;;;;5.32;2.17;;;24.80;36.00;;;;;;5034987;28;20057;-71
2022/07/08 11:02:13;;;;;;;4.82;1.98;;;24.90;35.00;;;;;;5035193;28;20344;-71
2022/07/08 11:04:39;;;;;;;5.90;1.58;;;24.90;34.90;;;;;;5034831;28;20021;-72
2022/07/08 11:07:17;;;;;;;5.70;2.00;;;24.90;34.50;;;;;;5033730;28;20071;-70
2022/07/08 11:09:49;;;;;;;3.28;1.40;;;25.00;34.80;;;;;;5034946;28;20392;-71
2022/07/08 11:12:16;;;;;;;5.03;1.65;;;25.00;34.90;;;;;;5033639;28;20025;-70
2022/07/08 11:14:49;;;;;;;10.98;1.98;;;25.00;34.70;;;;;;5034854;28;20034;-71
2022/07/08 11:17:16;;;;;;;4.75;1.63;;;25.00;35.00;;;;;;5034614;28;20407;-71
2022/07/08 11:19:42;;;;;;;4.93;1.90;;;25.00;35.00;;;;;;5034698;28;20030;-70
2022/07/08 11:22:12;;;;;;;7.38;2.08;;;24.90;35.10;;;;;;5034596;28;20100;-70
2022/07/08 11:24:38;;;;;;;4.30;2.17;;;24.80;34.70;;;;;;5033460;28;20029;-72
2022/07/08 11:27:05;;;;;;;7.72;1.85;;;24.80;35.50;;;;;;5034559;28;20021;-71
2022/07/08 11:29:32;;;;;;;7.55;1.73;;;24.90;34.70;;;;;;5034432;28;20021;-71
2022/07/08 11:31:59;;;;;;;10.52;2.08;;;25.00;34.50;;;;;;5034590;28;20022;-69
2022/07/08 11:34:25;;;;;;;7.70;2.00;;;25.10;33.60;;;;;;5034427;28;20035;-70
2022/07/08 11:36:59;;;;;;;11.25;2.03;;;25.20;32.60;;;;;;5034415;28;20021;-69
2022/07/08 11:39:25;;;;;;;7.50;1.95;;;25.40;33.30;;;;;;5034434;28;20033;-71
2022/07/08 11:41:51;;;;;;;4.55;1.83;;;25.50;32.10;;;;;;5034184;28;20390;-70
2022/07/08 11:44:20;;;;;;;4.47;1.67;;;25.60;32.70;;;;;;5032812;28;20474;-69
2022/07/08 11:46:48;;;;;;;6.00;2.05;;;25.80;32.60;;;;;;5034121;28;20104;-71
2022/07/08 11:49:14;;;;;;;4.85;1.48;;;25.90;32.40;;;;;;5032865;28;20025;-72
2022/07/08 11:51:54;;;;;;;4.88;1.55;;;26.00;30.30;;;;;;5034185;28;20041;-70
2022/07/08 11:54:30;;;;;;;6.65;1.80;;;26.00;30.20;;;;;;5034090;28;20075;-71
2022/07/08 11:57:01;;;;;;;4.28;1.60;;;26.10;30.70;;;;;;5033940;28;20065;-71
2022/07/08 11:59:31;;;;;;;6.10;1.88;;;26.20;30.50;;;;;;5033906;28;20053;-69
2022/07/08 12:01:59;;;;;;;7.15;1.65;;;26.40;30.70;;;;;;5033693;28;20459;-71
2022/07/08 12:04:26;;;;;;;5.88;1.70;;;26.40;30.40;;;;;;5033778;28;20033;-69
2022/07/08 12:06:58;;;;;;;5.97;1.48;;;26.60;30.50;;;;;;5033918;28;20109;-70
2022/07/08 12:09:26;;;;;;;4.30;1.75;;;26.60;30.00;;;;;;5033728;28;20053;-70
2022/07/08 12:11:55;;;;;;;2.88;1.52;;;26.70;29.30;;;;;;5033639;28;20034;-71
2022/07/08 12:14:22;;;;;;;5.25;1.95;;;26.70;29.00;;;;;;5033727;28;20021;-71
2022/07/08 12:16:55;;;;;;;4.65;1.70;;;26.80;29.20;;;;;;5032511;28;20121;-70
2022/07/08 12:19:27;;;;;;;8.48;2.03;;;26.80;30.00;;;;;;5032309;28;20022;-71
2022/07/08 12:21:53;;;;;;;4.00;1.73;;;26.90;29.00;;;;;;5033437;28;20037;-69
2022/07/08 12:24:25;;;;;;;4.00;1.83;;;26.90;29.40;;;;;;5033505;28;20075;-71
2022/07/08 12:26:59;;;;;;;6.38;2.00;;;27.00;29.90;;;;;;5032225;28;20021;-71
2022/07/08 12:29:31;;;;;;;4.80;1.83;;;27.20;29.00;;;;;;5032757;28;20026;-70
2022/07/08 12:31:57;;;;;;;7.43;1.85;;;27.30;28.70;;;;;;5032215;28;20026;-70
2022/07/08 12:34:24;;;;;;;4.10;1.98;;;27.30;28.40;;;;;;5033265;28;20029;-69
2022/07/08 12:36:51;;;;;;;5.13;1.55;;;27.30;28.20;;;;;;5033316;28;20075;-72
2022/07/08 12:39:28;;;;;;;4.32;1.77;;;27.30;28.10;;;;;;5033255;28;20036;-72
2022/07/08 12:42:05;;;;;;;3.42;1.80;;;27.10;28.40;;;;;;5033793;28;20036;-70
2022/07/08 12:44:41;;;;;;;4.05;1.80;;;27.20;28.80;;;;;;5033262;28;20017;-72
2022/07/08 12:47:11;;;;;;;2.67;1.63;;;27.30;29.20;;;;;;5031957;28;20108;-70
2022/07/08 12:49:39;;;;;;;3.70;1.70;;;27.40;28.90;;;;;;5033021;28;20049;-70
2022/07/08 12:52:07;;;;;;;3.35;1.70;;;27.40;28.20;;;;;;5031827;28;20116;-71